Sacramento, California
Current Conditions -  °F | °C
As of 2:53 PM on Thursday 18 Dec 2014 (Local Time) from KSAC Reporting Station
Scattered Clouds Scattered Clouds  
Wind Chill: 16°   Ceiling: Unl
Heat Index: 16°   Visibility: 10mi
Dew Point:   Wind: 8mph
Humidity: 64%   Direction: 160°SSE
Pressure: 30.15"   Gusts: NA
Location:  38.58°N, 121.49°W
Report Text: KSAC 182253Z 16007KT 10SM FEW042 SCT049 16/09 A3015 RMK AO2 SLP209 T01560089
Loading
Personal Weather Stations






























Interactive Weather Map New forecast layout! Learn more

10-Day Weather Forecast

Advertisements
Track Severe Weather on mobile